createdAt,value
2017-11-28T00:00:11.938Z,-4.37
2017-11-28T00:01:21.678Z,-4.33
2017-11-28T00:02:31.413Z,-4.33
2017-11-28T00:03:41.412Z,-4.2
2017-11-28T00:04:51.426Z,-4.33
2017-11-28T00:06:01.453Z,-4.27
2017-11-28T00:07:11.462Z,-4.33
2017-11-28T00:08:21.188Z,-4.33
2017-11-28T00:09:31.199Z,-4.31
2017-11-28T00:10:40.928Z,-4.34
2017-11-28T00:11:50.930Z,-4.33
2017-11-28T00:13:00.674Z,-4.41
2017-11-28T00:14:10.673Z,-4.38
2017-11-28T00:15:20.412Z,-4.38
2017-11-28T00:16:30.174Z,-4.45
2017-11-28T00:17:40.176Z,-4.4
2017-11-28T00:18:49.907Z,-4.44
2017-11-28T00:19:59.641Z,-4.44
2017-11-28T00:21:09.641Z,-4.34
2017-11-28T00:22:19.642Z,-4.4
2017-11-28T00:23:29.638Z,-4.44
2017-11-28T00:24:39.651Z,-4.4
2017-11-28T00:25:49.657Z,-4.41
2017-11-28T00:26:59.662Z,-4.38
2017-11-28T00:28:09.672Z,-4.37
2017-11-28T00:29:19.672Z,-4.38
2017-11-28T00:30:29.680Z,-4.41
2017-11-28T00:31:39.684Z,-4.33
2017-11-28T00:32:49.712Z,-4.35
2017-11-28T00:33:59.731Z,-4.34
2017-11-28T00:35:09.736Z,-4.4
2017-11-28T00:36:19.744Z,-4.34
2017-11-28T00:37:29.750Z,-4.33
2017-11-28T00:38:39.756Z,-4.27
2017-11-28T00:39:49.762Z,-4.26
2017-11-28T00:40:59.766Z,-4.31
2017-11-28T00:42:09.231Z,-4.3
2017-11-28T00:43:19.241Z,-4.26
2017-11-28T00:44:28.973Z,-4.37
2017-11-28T00:45:38.982Z,-4.27
2017-11-28T00:46:49.004Z,-4.35
2017-11-28T00:47:59.007Z,-4.31
2017-11-28T00:49:09.017Z,-4.33
2017-11-28T00:50:19.094Z,-4.41
2017-11-28T00:51:29.092Z,-4.31
2017-11-28T00:52:39.097Z,-4.26
2017-11-28T00:53:48.834Z,-4.26
2017-11-28T00:54:58.845Z,-4.27
2017-11-28T00:56:08.854Z,-4.22
2017-11-28T00:57:18.599Z,-4.24
2017-11-28T00:58:28.328Z,-4.2
2017-11-28T00:59:38.351Z,-4.24
2017-11-28T01:00:48.350Z,-4.24
2017-11-28T01:01:58.384Z,-4.3
2017-11-28T01:03:07.864Z,-4.23
2017-11-28T01:04:17.608Z,-4.26
2017-11-28T01:05:27.624Z,-4.23
2017-11-28T01:06:37.631Z,-4.17
2017-11-28T01:07:47.095Z,-4.16
2017-11-28T01:08:57.120Z,-4.17
2017-11-28T01:10:07.139Z,-4.14
2017-11-28T01:11:17.159Z,-4.14
2017-11-28T01:12:27.169Z,-4.22
2017-11-28T01:13:37.180Z,-4.17
2017-11-28T01:14:47.203Z,-4.14
2017-11-28T01:15:57.212Z,-4.2
2017-11-28T01:17:06.947Z,-4.17
2017-11-28T01:18:16.950Z,-4.19
2017-11-28T01:19:26.951Z,-4.22
2017-11-28T01:20:36.950Z,-4.16
2017-11-28T01:21:46.957Z,-4.2
2017-11-28T01:22:56.986Z,-4.17
2017-11-28T01:24:06.998Z,-4.2
2017-11-28T01:25:17.309Z,-4.2
2017-11-28T01:26:27.315Z,-4.24
2017-11-28T01:27:37.319Z,-4.23
2017-11-28T01:28:47.319Z,-4.2
2017-11-28T01:29:57.334Z,-4.14
2017-11-28T01:31:07.346Z,-4.09
2017-11-28T01:32:17.357Z,-4.01
2017-11-28T01:33:27.371Z,-3.98
2017-11-28T01:34:37.368Z,-3.94
2017-11-28T01:35:47.381Z,-4.01
2017-11-28T01:36:57.390Z,-4.02
2017-11-28T01:38:07.390Z,-4.05
2017-11-28T01:39:17.406Z,-4.06
2017-11-28T01:40:27.411Z,-4.01
2017-11-28T01:41:37.451Z,-4.06
2017-11-28T01:42:47.471Z,-4.04
2017-11-28T01:43:57.472Z,-4.08
2017-11-28T01:45:07.219Z,-4.08
2017-11-28T01:46:16.961Z,-4.04
2017-11-28T01:47:26.962Z,-4.14
2017-11-28T01:48:36.992Z,-4.06
2017-11-28T01:49:46.998Z,-4.04
2017-11-28T01:50:56.997Z,-4.02
2017-11-28T01:52:06.999Z,-4.08
2017-11-28T01:53:16.740Z,-4.04
2017-11-28T01:54:26.747Z,-4.05
2017-11-28T01:55:36.763Z,-4.05
2017-11-28T01:56:46.770Z,-4.05
2017-11-28T01:57:56.784Z,-4.04
2017-11-28T01:59:06.788Z,-4.02
2017-11-28T02:00:16.807Z,-4.06
2017-11-28T02:01:26.545Z,-4.05
2017-11-28T02:02:36.553Z,-4.02
2017-11-28T02:03:46.291Z,-4.04
2017-11-28T02:04:56.316Z,-4.05
2017-11-28T02:06:06.335Z,-4.04
2017-11-28T02:07:16.341Z,-4.02
2017-11-28T02:08:26.350Z,-3.96
2017-11-28T02:09:36.353Z,-4.04
2017-11-28T02:10:46.369Z,-4.01
2017-11-28T02:11:56.385Z,-3.94
2017-11-28T02:13:06.393Z,-3.99
2017-11-28T02:14:16.393Z,-3.98
2017-11-28T02:15:26.141Z,-4.04
2017-11-28T02:16:35.870Z,-3.96
2017-11-28T02:17:45.608Z,-3.94
2017-11-28T02:18:55.642Z,-3.9
2017-11-28T02:20:05.387Z,-3.87
2017-11-28T02:21:15.415Z,-3.88
2017-11-28T02:22:25.415Z,-3.96
2017-11-28T02:23:35.419Z,-3.91
2017-11-28T02:24:45.427Z,-4.05
2017-11-28T02:25:55.430Z,-4.04
2017-11-28T02:27:05.445Z,-4.01
2017-11-28T02:28:14.913Z,-3.9
2017-11-28T02:29:24.923Z,-3.88
2017-11-28T02:30:34.697Z,-3.87
2017-11-28T02:31:44.716Z,-3.85
2017-11-28T02:32:54.724Z,-3.88
2017-11-28T02:34:04.481Z,-3.9
2017-11-28T02:35:14.530Z,-3.91
2017-11-28T02:36:24.547Z,-3.95
2017-11-28T02:37:34.553Z,-3.81
2017-11-28T02:38:44.580Z,-3.9
2017-11-28T02:39:54.327Z,-3.91
2017-11-28T02:41:04.343Z,-3.74
2017-11-28T02:42:14.088Z,-3.81
2017-11-28T02:43:24.105Z,-3.81
2017-11-28T02:44:33.854Z,-3.9
2017-11-28T02:45:43.868Z,-3.8
2017-11-28T02:46:53.880Z,-3.83
2017-11-28T02:48:03.611Z,-3.83
2017-11-28T02:49:13.654Z,-3.84
2017-11-28T02:50:23.393Z,-3.83
2017-11-28T02:51:33.126Z,-3.77
2017-11-28T02:52:43.132Z,-3.84
2017-11-28T02:53:53.166Z,-3.71
2017-11-28T02:55:03.246Z,-3.71
2017-11-28T02:56:13.353Z,-3.8
2017-11-28T02:57:23.099Z,-3.8
2017-11-28T02:58:32.833Z,-3.8
2017-11-28T02:59:42.838Z,-3.77
2017-11-28T03:00:52.853Z,-3.71
2017-11-28T03:02:02.914Z,-3.75
2017-11-28T03:03:12.923Z,-3.75
2017-11-28T03:04:22.933Z,-3.74
2017-11-28T03:05:32.427Z,-3.81
2017-11-28T03:06:42.477Z,-3.8
2017-11-28T03:07:52.488Z,-3.71
2017-11-28T03:09:02.219Z,-3.69
2017-11-28T03:10:12.275Z,-3.69
2017-11-28T03:11:22.294Z,-3.75
2017-11-28T03:12:32.316Z,-3.71
2017-11-28T03:13:42.321Z,-3.71
2017-11-28T03:14:52.323Z,-3.68
2017-11-28T03:16:02.350Z,-3.71
2017-11-28T03:17:12.102Z,-3.69
2017-11-28T03:18:21.833Z,-3.71
2017-11-28T03:19:31.854Z,-3.68
2017-11-28T03:20:41.869Z,-3.59
2017-11-28T03:21:51.890Z,-3.62
2017-11-28T03:23:01.901Z,-3.61
2017-11-28T03:24:11.631Z,-3.47
2017-11-28T03:25:21.645Z,-3.48
2017-11-28T03:26:31.375Z,-3.43
2017-11-28T03:27:43.106Z,-3.48
2017-11-28T03:28:53.114Z,-3.47
2017-11-28T03:30:03.133Z,-3.44
2017-11-28T03:31:12.908Z,-3.48
2017-11-28T03:32:22.969Z,-3.59
2017-11-28T03:33:32.971Z,-3.53
2017-11-28T03:34:42.982Z,-3.4
2017-11-28T03:35:52.997Z,-3.36
2017-11-28T03:37:03.007Z,-3.22
2017-11-28T03:38:13.020Z,-3.25
2017-11-28T03:39:23.047Z,-3.19
2017-11-28T03:40:33.062Z,-3.17
2017-11-28T03:41:43.067Z,-3.27
2017-11-28T03:42:53.094Z,-3.36
2017-11-28T03:44:03.120Z,-3.36
2017-11-28T03:45:12.861Z,-3.36
2017-11-28T03:46:22.935Z,-3.43
2017-11-28T03:47:32.941Z,-3.46
2017-11-28T03:48:42.945Z,-3.4
2017-11-28T03:49:52.952Z,-3.4
2017-11-28T03:51:02.960Z,-3.41
2017-11-28T03:52:12.981Z,-3.41
2017-11-28T03:53:23.004Z,-3.36
2017-11-28T03:54:32.775Z,-3.38
2017-11-28T03:55:42.794Z,-3.36
2017-11-28T03:56:52.801Z,-3.41
2017-11-28T03:58:02.812Z,-3.5
2017-11-28T03:59:12.829Z,-3.51
2017-11-28T04:00:22.835Z,-3.56
2017-11-28T04:04:11.990Z,-3.64
2017-11-28T04:05:21.992Z,-3.61
2017-11-28T04:06:31.998Z,-3.64
2017-11-28T04:07:42.021Z,-3.56
2017-11-28T04:08:52.044Z,-3.58
2017-11-28T04:10:02.055Z,-3.53
2017-11-28T04:11:12.095Z,-3.69
2017-11-28T04:12:22.121Z,-3.62
2017-11-28T04:13:31.853Z,-3.59
2017-11-28T04:14:41.864Z,-3.59
2017-11-28T04:15:51.895Z,-3.66
2017-11-28T04:17:01.639Z,-3.69
2017-11-28T04:18:11.661Z,-3.69
2017-11-28T04:19:21.669Z,-3.68
2017-11-28T04:20:31.688Z,-3.65
2017-11-28T04:21:41.688Z,-3.68
2017-11-28T04:22:51.698Z,-3.59
2017-11-28T04:24:01.435Z,-3.55
2017-11-28T04:25:11.180Z,-3.62
2017-11-28T04:26:20.917Z,-3.59
2017-11-28T04:27:30.925Z,-3.62
2017-11-28T04:28:40.936Z,-3.61
2017-11-28T04:29:50.963Z,-3.62
2017-11-28T04:31:01.007Z,-3.56
2017-11-28T04:32:11.024Z,-3.61
2017-11-28T04:33:21.024Z,-3.59
2017-11-28T04:34:31.046Z,-3.58
2017-11-28T04:35:41.050Z,-3.62
2017-11-28T04:36:51.058Z,-3.55
2017-11-28T04:38:01.073Z,-3.59
2017-11-28T04:39:11.145Z,-3.61
2017-11-28T04:40:21.155Z,-3.59
2017-11-28T04:41:31.160Z,-3.58
2017-11-28T04:42:41.168Z,-3.55
2017-11-28T04:43:51.171Z,-3.51
2017-11-28T04:45:00.917Z,-3.58
2017-11-28T04:46:10.921Z,-3.61
2017-11-28T04:47:20.926Z,-3.59
2017-11-28T04:48:30.933Z,-3.53
2017-11-28T04:49:40.665Z,-3.53
2017-11-28T04:50:50.669Z,-3.53
2017-11-28T04:52:00.684Z,-3.48
2017-11-28T04:53:10.412Z,-3.53
2017-11-28T04:54:20.429Z,-3.51
2017-11-28T04:55:30.439Z,-3.47
2017-11-28T04:56:40.448Z,-3.53
2017-11-28T04:57:50.448Z,-3.47
2017-11-28T04:59:00.463Z,-3.5
2017-11-28T05:00:10.209Z,-3.47
2017-11-28T05:01:20.210Z,-3.46
2017-11-28T05:02:30.224Z,-3.47
2017-11-28T05:03:40.232Z,-3.46
2017-11-28T05:04:49.979Z,-3.51
2017-11-28T05:05:59.991Z,-3.46
2017-11-28T05:07:10.005Z,-3.47
2017-11-28T05:08:20.008Z,-3.53
2017-11-28T05:09:30.040Z,-3.44
2017-11-28T05:10:40.074Z,-3.46
2017-11-28T05:11:50.121Z,-3.51
2017-11-28T05:13:00.165Z,-3.48
2017-11-28T05:14:10.166Z,-3.47
2017-11-28T05:15:20.174Z,-3.48
2017-11-28T05:16:29.903Z,-3.46
2017-11-28T05:17:39.639Z,-3.46
2017-11-28T05:18:49.658Z,-3.46
2017-11-28T05:19:59.654Z,-3.44
2017-11-28T05:21:09.697Z,-3.43
2017-11-28T05:22:19.440Z,-3.46
2017-11-28T05:23:29.463Z,-3.36
2017-11-28T05:24:39.464Z,-3.38
2017-11-28T05:25:51.466Z,-3.41
2017-11-28T05:27:01.479Z,-3.37
2017-11-28T05:28:11.219Z,-3.23
2017-11-28T05:29:21.232Z,-3.37
2017-11-28T05:30:31.239Z,-3.43
2017-11-28T05:31:41.240Z,-3.36
2017-11-28T05:32:50.982Z,-3.43
2017-11-28T05:34:00.986Z,-3.4
2017-11-28T05:35:10.993Z,-3.36
2017-11-28T05:36:20.736Z,-3.4
2017-11-28T05:37:30.740Z,-3.4
2017-11-28T05:38:40.739Z,-3.44
2017-11-28T05:39:50.487Z,-3.37
2017-11-28T05:41:00.221Z,-3.37
2017-11-28T05:42:10.235Z,-3.4
2017-11-28T05:43:22.255Z,-3.37
2017-11-28T05:44:32.263Z,-3.41
2017-11-28T05:45:42.354Z,-3.4
2017-11-28T05:46:52.360Z,-3.37
2017-11-28T05:48:02.373Z,-3.4
2017-11-28T05:49:12.372Z,-3.37
2017-11-28T05:50:22.112Z,-3.33
2017-11-28T05:51:31.849Z,-3.4
2017-11-28T05:52:41.854Z,-3.43
2017-11-28T05:53:51.865Z,-3.43
2017-11-28T05:55:01.877Z,-3.4
2017-11-28T05:56:11.625Z,-3.41
2017-11-28T05:57:21.365Z,-3.4
2017-11-28T05:58:31.109Z,-3.33
2017-11-28T05:59:40.853Z,-3.43
2017-11-28T06:00:50.903Z,-3.38
2017-11-28T06:02:00.905Z,-3.38
2017-11-28T06:03:10.373Z,-3.4
2017-11-28T06:04:20.383Z,-3.41
2017-11-28T06:05:30.383Z,-3.36
2017-11-28T06:06:40.427Z,-3.3
2017-11-28T06:07:50.422Z,-3.4
2017-11-28T06:09:00.442Z,-3.4
2017-11-28T06:10:10.180Z,-3.38
2017-11-28T06:11:20.186Z,-3.32
2017-11-28T06:12:30.194Z,-3.33
2017-11-28T06:13:40.212Z,-3.27
2017-11-28T06:14:50.235Z,-3.26
2017-11-28T06:15:59.994Z,-3.38
2017-11-28T06:17:10.007Z,-3.4
2017-11-28T06:18:20.017Z,-3.37
2017-11-28T06:19:30.025Z,-3.23
2017-11-28T06:20:40.039Z,-3.26
2017-11-28T06:21:50.061Z,-3.2
2017-11-28T06:23:00.079Z,-3.2
2017-11-28T06:24:10.079Z,-3.22
2017-11-28T06:25:20.094Z,-3.3
2017-11-28T06:26:30.101Z,-3.29
2017-11-28T06:27:40.115Z,-3.19
2017-11-28T06:28:50.124Z,-3.27
2017-11-28T06:30:00.147Z,-3.27
2017-11-28T06:31:10.164Z,-3.26
2017-11-28T06:32:20.186Z,-3.29
2017-11-28T06:33:30.219Z,-3.27
2017-11-28T06:34:40.226Z,-3.3
2017-11-28T06:35:49.971Z,-3.25
2017-11-28T06:36:59.983Z,-3.26
2017-11-28T06:38:10.004Z,-3.26
2017-11-28T06:39:19.740Z,-3.22
2017-11-28T06:40:29.749Z,-3.19
2017-11-28T06:41:39.795Z,-3.22
2017-11-28T06:42:49.524Z,-3.23
2017-11-28T06:43:59.528Z,-3.09
2017-11-28T06:45:09.268Z,-3.11
2017-11-28T06:46:19.278Z,-3.12
2017-11-28T06:47:29.280Z,-3.2
2017-11-28T06:48:39.298Z,-3.2
2017-11-28T06:49:49.297Z,-3.15
2017-11-28T06:50:59.304Z,-3.02
2017-11-28T06:52:09.326Z,-3.17
2017-11-28T06:53:19.331Z,-3.22
2017-11-28T06:54:29.330Z,-3.25
2017-11-28T06:55:39.352Z,-3.22
2017-11-28T06:56:49.117Z,-3.12
2017-11-28T06:57:59.156Z,-3.15
2017-11-28T06:59:08.911Z,-3.12
2017-11-28T07:00:18.925Z,-3.11
2017-11-28T07:01:28.944Z,-3.08
2017-11-28T07:02:38.950Z,-3.05
2017-11-28T07:03:48.973Z,-3.07
2017-11-28T07:04:58.717Z,-3.08
2017-11-28T07:06:08.179Z,-3.04
2017-11-28T07:07:18.213Z,-3.15
2017-11-28T07:08:28.218Z,-3.09
2017-11-28T07:09:38.232Z,-3.07
2017-11-28T07:10:48.265Z,-3.02
2017-11-28T07:11:58.283Z,-3.05
2017-11-28T07:13:08.298Z,-3.12
2017-11-28T07:14:18.034Z,-3.08
2017-11-28T07:15:27.780Z,-3.08
2017-11-28T07:16:37.577Z,-3.17
2017-11-28T07:17:47.317Z,-3.17
2017-11-28T07:18:57.334Z,-3.14
2017-11-28T07:20:07.070Z,-3.2
2017-11-28T07:21:17.073Z,-3.14
2017-11-28T07:22:26.819Z,-3.17
2017-11-28T07:23:36.832Z,-3.14
2017-11-28T07:24:46.836Z,-3.05
2017-11-28T07:25:56.844Z,-3.19
2017-11-28T07:27:06.845Z,-3.09
2017-11-28T07:28:16.867Z,-3.2
2017-11-28T07:29:27.004Z,-3.19
2017-11-28T07:30:36.794Z,-3.2
2017-11-28T07:31:46.883Z,-3.07
2017-11-28T07:32:56.655Z,-3.15
2017-11-28T07:34:07.408Z,-3.14
2017-11-28T07:35:17.419Z,-3.19
2017-11-28T07:36:27.452Z,-3.07
2017-11-28T07:37:37.502Z,-3.19
2017-11-28T07:38:47.513Z,-3.2
2017-11-28T07:39:57.509Z,-3.19
2017-11-28T07:41:07.519Z,-3.07
2017-11-28T07:42:17.268Z,-3.19
2017-11-28T07:43:27.281Z,-3.17
2017-11-28T07:44:37.299Z,-3.14
2017-11-28T07:45:47.603Z,-3.11
2017-11-28T07:46:57.618Z,-3.07
2017-11-28T07:48:07.384Z,-3.17
2017-11-28T07:49:17.417Z,-3.12
2017-11-28T07:50:27.432Z,-3.11
2017-11-28T07:51:37.435Z,-3.12
2017-11-28T07:52:47.166Z,-3.07
2017-11-28T07:53:57.174Z,-3.08
2017-11-28T07:55:06.941Z,-3.08
2017-11-28T07:56:16.698Z,-3.04
2017-11-28T07:57:26.706Z,-3.15
2017-11-28T07:58:36.451Z,-3.04
2017-11-28T07:59:46.482Z,-3.07
2017-11-28T08:00:56.214Z,-3.08
2017-11-28T08:02:06.226Z,-3.08
2017-11-28T08:03:16.231Z,-3.12
2017-11-28T08:04:26.357Z,-3.11
2017-11-28T08:05:36.369Z,-3.12
2017-11-28T08:06:46.373Z,-3.08
2017-11-28T08:07:56.371Z,-3.11
2017-11-28T08:09:06.382Z,-3.05
2017-11-28T08:10:16.393Z,-3.11
2017-11-28T08:11:26.403Z,-3.08
2017-11-28T08:12:36.402Z,-3.15
2017-11-28T08:13:46.409Z,-3.09
2017-11-28T08:14:56.146Z,-3.12
2017-11-28T08:16:06.159Z,-3.05
2017-11-28T08:17:15.903Z,-3.04
2017-11-28T08:18:25.914Z,-3.01
2017-11-28T08:19:35.915Z,-3.05
2017-11-28T08:20:45.656Z,-3.05
2017-11-28T08:21:55.660Z,-3.04
2017-11-28T08:23:05.663Z,-3.08
2017-11-28T08:24:15.676Z,-3.08
2017-11-28T08:25:25.690Z,-3.15
2017-11-28T08:26:35.701Z,-3.05
2017-11-28T08:27:45.437Z,-3.04
2017-11-28T08:28:55.242Z,-3.12
2017-11-28T08:30:05.270Z,-3.02
2017-11-28T08:31:15.275Z,-3.08
2017-11-28T08:32:25.298Z,-3.01
2017-11-28T08:33:35.298Z,-2.93
2017-11-28T08:34:45.304Z,-2.89
2017-11-28T08:35:55.312Z,-2.9
2017-11-28T08:37:05.336Z,-2.93
2017-11-28T08:38:15.688Z,-2.93
2017-11-28T08:39:25.712Z,-2.83
2017-11-28T08:40:35.460Z,-2.86
2017-11-28T08:41:45.498Z,-2.86
2017-11-28T08:42:55.505Z,-2.87
2017-11-28T08:44:05.236Z,-2.78
2017-11-28T08:45:14.981Z,-2.89
2017-11-28T08:46:24.985Z,-2.9
2017-11-28T08:47:34.731Z,-2.86
2017-11-28T08:48:44.758Z,-2.87
2017-11-28T08:49:54.766Z,-2.89
2017-11-28T08:51:04.779Z,-2.84
2017-11-28T08:52:14.261Z,-2.9
2017-11-28T08:53:24.266Z,-2.86
2017-11-28T08:54:34.314Z,-2.84
2017-11-28T08:55:44.324Z,-2.83
2017-11-28T08:56:54.072Z,-2.94
2017-11-28T08:58:04.076Z,-2.98
2017-11-28T08:59:14.095Z,-2.93
2017-11-28T09:00:24.105Z,-2.87
2017-11-28T09:01:34.124Z,-2.91
2017-11-28T09:02:44.149Z,-2.84
2017-11-28T09:03:53.889Z,-2.83
2017-11-28T09:05:03.621Z,-2.9
2017-11-28T09:06:13.621Z,-2.86
2017-11-28T09:07:23.362Z,-2.83
2017-11-28T09:08:33.129Z,-2.86
2017-11-28T09:09:43.129Z,-2.83
2017-11-28T09:10:52.863Z,-2.9
2017-11-28T09:12:02.870Z,-2.9
2017-11-28T09:13:12.341Z,-2.91
2017-11-28T09:14:22.354Z,-2.91
2017-11-28T09:15:32.365Z,-2.93
2017-11-28T09:16:42.370Z,-2.94
2017-11-28T09:17:52.382Z,-3.01
2017-11-28T09:19:02.112Z,-2.94
2017-11-28T09:20:12.131Z,-2.99
2017-11-28T09:21:22.164Z,-2.96
2017-11-28T09:22:32.166Z,-3.01
2017-11-28T09:23:42.173Z,-2.98
2017-11-28T09:24:52.176Z,-2.96
2017-11-28T09:26:02.180Z,-2.89
2017-11-28T09:27:11.374Z,-2.98
2017-11-28T09:28:21.105Z,-2.86
2017-11-28T09:29:30.590Z,-2.98
2017-11-28T09:30:41.057Z,-2.96
2017-11-28T09:31:51.062Z,-3.02
2017-11-28T09:33:01.106Z,-2.98
2017-11-28T09:34:10.834Z,-2.99
2017-11-28T09:35:20.571Z,-2.9
2017-11-28T09:36:30.586Z,-2.89
2017-11-28T09:37:40.598Z,-2.94
2017-11-28T09:38:50.612Z,-3.01
2017-11-28T09:40:00.670Z,-2.84
2017-11-28T09:41:10.694Z,-2.83
2017-11-28T09:42:20.702Z,-2.89
2017-11-28T09:43:30.699Z,-2.91
2017-11-28T09:44:40.714Z,-2.89
2017-11-28T09:45:50.177Z,-2.89
2017-11-28T09:47:00.198Z,-2.87
2017-11-28T09:48:10.214Z,-2.83
2017-11-28T09:49:19.955Z,-2.83
2017-11-28T09:50:29.707Z,-2.86
2017-11-28T09:51:39.729Z,-2.89
2017-11-28T09:52:49.475Z,-2.81
2017-11-28T09:53:58.937Z,-2.83
2017-11-28T09:55:08.953Z,-2.86
2017-11-28T09:56:18.971Z,-2.94
2017-11-28T09:57:28.984Z,-2.84
2017-11-28T09:58:38.986Z,-2.87
2017-11-28T09:59:48.457Z,-2.9
2017-11-28T10:00:58.468Z,-2.87
2017-11-28T10:02:08.486Z,-2.96
2017-11-28T10:03:18.494Z,-2.94
2017-11-28T10:04:28.256Z,-2.86
2017-11-28T10:05:38.286Z,-2.73
2017-11-28T10:06:47.749Z,-2.75
2017-11-28T10:07:57.757Z,-2.8
2017-11-28T10:09:07.503Z,-2.75
2017-11-28T10:10:17.521Z,-2.65
2017-11-28T10:11:27.585Z,-2.65
2017-11-28T10:12:37.616Z,-2.62
2017-11-28T10:13:47.093Z,-2.62
2017-11-28T10:14:56.569Z,-2.57
2017-11-28T10:16:06.575Z,-2.65
2017-11-28T10:17:16.912Z,-2.57
2017-11-28T10:18:26.657Z,-2.68
2017-11-28T10:19:36.671Z,-2.61
2017-11-28T10:20:46.677Z,-2.66
2017-11-28T10:21:56.686Z,-2.58
2017-11-28T10:23:06.431Z,-2.54
2017-11-28T10:24:16.166Z,-2.54
2017-11-28T10:25:26.178Z,-2.51
2017-11-28T10:26:36.220Z,-2.63
2017-11-28T10:27:46.233Z,-2.57
2017-11-28T10:28:56.262Z,-2.51
2017-11-28T10:30:06.273Z,-2.62
2017-11-28T10:31:16.280Z,-2.55
2017-11-28T10:32:26.039Z,-2.62
2017-11-28T10:33:35.769Z,-2.57
2017-11-28T10:34:45.234Z,-2.52
2017-11-28T10:35:54.978Z,-2.54
2017-11-28T10:37:04.986Z,-2.7
2017-11-28T10:38:14.999Z,-2.62
2017-11-28T10:39:25.012Z,-2.69
2017-11-28T10:40:35.025Z,-2.63
2017-11-28T10:41:45.047Z,-2.61
2017-11-28T10:42:55.056Z,-2.52
2017-11-28T10:44:04.788Z,-2.51
2017-11-28T10:45:14.800Z,-2.52
2017-11-28T10:46:24.826Z,-2.55
2017-11-28T10:47:34.838Z,-2.5
2017-11-28T10:48:44.585Z,-2.39
2017-11-28T10:49:54.587Z,-2.39
2017-11-28T10:51:04.594Z,-2.39
2017-11-28T10:52:14.331Z,-2.42
2017-11-28T10:53:24.355Z,-2.47
2017-11-28T10:54:34.364Z,-2.37
2017-11-28T10:55:44.386Z,-2.4
2017-11-28T10:56:54.394Z,-2.45
2017-11-28T10:58:04.410Z,-2.33
2017-11-28T10:59:14.142Z,-2.23
2017-11-28T11:00:24.155Z,-2.28
2017-11-28T11:01:34.163Z,-2.36
2017-11-28T11:02:44.169Z,-2.33
2017-11-28T11:03:53.914Z,-2.42
2017-11-28T11:05:03.921Z,-2.36
2017-11-28T11:06:13.674Z,-2.34
2017-11-28T11:07:23.682Z,-2.33
2017-11-28T11:08:33.689Z,-2.26
2017-11-28T11:09:43.699Z,-2.36
2017-11-28T11:10:53.434Z,-2.37
2017-11-28T11:12:03.171Z,-2.34
2017-11-28T11:13:12.668Z,-2.39
2017-11-28T11:14:22.693Z,-2.32
2017-11-28T11:15:32.701Z,-2.29
2017-11-28T11:16:42.705Z,-2.29
2017-11-28T11:17:52.713Z,-2.29
2017-11-28T11:19:02.455Z,-2.36
2017-11-28T11:20:12.460Z,-2.25
2017-11-28T11:21:22.461Z,-2.39
2017-11-28T11:22:32.472Z,-2.39
2017-11-28T11:23:42.478Z,-2.33
2017-11-28T11:24:52.480Z,-2.34
2017-11-28T11:26:02.502Z,-2.29
2017-11-28T11:27:12.232Z,-2.36
2017-11-28T11:28:22.287Z,-2.32
2017-11-28T11:29:32.314Z,-2.34
2017-11-28T11:30:42.344Z,-2.37
2017-11-28T11:31:52.090Z,-2.34
2017-11-28T11:33:01.836Z,-2.33
2017-11-28T11:34:11.315Z,-2.36
2017-11-28T11:35:21.062Z,-2.39
2017-11-28T11:36:31.123Z,-2.39
2017-11-28T11:37:41.152Z,-2.32
2017-11-28T11:38:51.157Z,-2.29
2017-11-28T11:40:00.619Z,-2.33
2017-11-28T11:41:10.375Z,-2.42
2017-11-28T11:42:20.395Z,-2.5
2017-11-28T11:43:30.143Z,-2.29
2017-11-28T11:44:40.149Z,-2.36
2017-11-28T11:45:49.619Z,-2.32
2017-11-28T11:46:59.358Z,-2.26
2017-11-28T11:48:09.368Z,-2.23
2017-11-28T11:49:19.377Z,-2.17
2017-11-28T11:50:29.409Z,-2.15
2017-11-28T11:51:39.431Z,-2.22
2017-11-28T11:52:49.432Z,-2.14
2017-11-28T11:53:59.440Z,-2.2
2017-11-28T11:55:09.450Z,-2.23
2017-11-28T11:56:19.459Z,-2.25
2017-11-28T11:57:29.595Z,-2.25
2017-11-28T11:58:39.624Z,-2.23
2017-11-28T11:59:49.089Z,-2.29
2017-11-28T12:00:58.839Z,-2.15
2017-11-28T12:02:08.866Z,-2.23
2017-11-28T12:03:18.606Z,-2.18
2017-11-28T12:04:28.619Z,-2.34
2017-11-28T12:05:38.630Z,-2.29
2017-11-28T12:06:48.099Z,-2.14
2017-11-28T12:07:58.099Z,-2.2
2017-11-28T12:09:08.112Z,-2.11
2017-11-28T12:10:17.878Z,-2.11
2017-11-28T12:11:27.901Z,-2.1
2017-11-28T12:12:37.919Z,-2.13
2017-11-28T12:13:49.150Z,-2.11
2017-11-28T12:14:58.889Z,-2.17
2017-11-28T12:16:08.895Z,-2.22
2017-11-28T12:17:18.906Z,-2.2
2017-11-28T12:18:29.003Z,-2.15
2017-11-28T12:19:39.017Z,-2.29
2017-11-28T12:20:49.025Z,-2.14
2017-11-28T12:21:58.772Z,-2.08
2017-11-28T12:23:08.792Z,-2.13
2017-11-28T12:24:18.798Z,-2.18
2017-11-28T12:25:28.564Z,-2.15
2017-11-28T12:26:38.586Z,-2.14
2017-11-28T12:27:48.601Z,-2.14
2017-11-28T12:28:58.359Z,-2.14
2017-11-28T12:30:08.094Z,-2.17
2017-11-28T12:31:17.834Z,-2.2
2017-11-28T12:32:27.851Z,-2.36
2017-11-28T12:33:37.855Z,-2.26
2017-11-28T12:34:47.318Z,-2.34
2017-11-28T12:35:57.340Z,-2.36
2017-11-28T12:37:06.858Z,-2.37
2017-11-28T12:38:16.862Z,-2.37
2017-11-28T12:39:26.859Z,-2.34
2017-11-28T12:40:36.906Z,-2.39
2017-11-28T12:41:46.653Z,-2.34
2017-11-28T12:42:56.675Z,-2.4
2017-11-28T12:44:06.681Z,-2.44
2017-11-28T12:45:16.693Z,-2.42
2017-11-28T12:46:26.695Z,-2.4
2017-11-28T12:47:36.715Z,-2.48
2017-11-28T12:48:46.515Z,-2.33
2017-11-28T12:49:56.265Z,-2.32
2017-11-28T12:51:06.266Z,-2.33
2017-11-28T12:52:16.301Z,-2.22
2017-11-28T12:53:26.042Z,-2.2
2017-11-28T12:54:36.044Z,-2.29
2017-11-28T12:55:45.785Z,-2.23
2017-11-28T12:56:55.245Z,-2.17
2017-11-28T12:58:05.269Z,-2.25
2017-11-28T12:59:15.295Z,-2.26
2017-11-28T13:00:25.312Z,-2.17
2017-11-28T13:01:35.322Z,-2.23
2017-11-28T13:02:45.335Z,-2.2
2017-11-28T13:03:55.336Z,-2.25
2017-11-28T13:05:05.377Z,-2.14
2017-11-28T13:06:15.417Z,-2.1
2017-11-28T13:07:25.418Z,-2.07
2017-11-28T13:08:35.419Z,-2.13
2017-11-28T13:09:45.426Z,-2.1
2017-11-28T13:10:55.171Z,-2.08
2017-11-28T13:12:05.173Z,-2
2017-11-28T13:13:14.910Z,-2.1
2017-11-28T13:14:24.639Z,-2.1
2017-11-28T13:15:34.646Z,-2.08
2017-11-28T13:16:44.642Z,-2.2
2017-11-28T13:17:54.645Z,-2.14
2017-11-28T13:19:04.377Z,-2.26
2017-11-28T13:20:14.121Z,-2.28
2017-11-28T13:21:23.894Z,-2.36
2017-11-28T13:22:33.899Z,-2.29
2017-11-28T13:23:43.900Z,-2.36
2017-11-28T13:24:53.904Z,-2.47
2017-11-28T13:26:03.914Z,-2.45
2017-11-28T13:27:13.921Z,-2.47
2017-11-28T13:28:23.391Z,-2.36
2017-11-28T13:29:33.402Z,-2.42
2017-11-28T13:30:43.157Z,-2.39
2017-11-28T13:31:52.903Z,-2.52
2017-11-28T13:33:02.905Z,-2.51
2017-11-28T13:34:12.644Z,-2.57
2017-11-28T13:35:22.651Z,-2.57
2017-11-28T13:36:32.657Z,-2.55
2017-11-28T13:37:42.662Z,-2.54
2017-11-28T13:38:52.403Z,-2.57
2017-11-28T13:40:01.879Z,-2.68
2017-11-28T13:41:11.881Z,-2.63
2017-11-28T13:42:21.889Z,-2.62
2017-11-28T13:43:31.623Z,-2.61
2017-11-28T13:44:41.648Z,-2.58
2017-11-28T13:45:51.694Z,-2.55
2017-11-28T13:47:01.695Z,-2.54
2017-11-28T13:48:11.429Z,-2.52
2017-11-28T13:49:21.440Z,-2.51
2017-11-28T13:50:31.444Z,-2.55
2017-11-28T13:51:40.904Z,-2.5
2017-11-28T13:52:50.908Z,-2.48
2017-11-28T13:54:00.930Z,-2.36
2017-11-28T13:55:10.929Z,-2.4
2017-11-28T13:56:20.967Z,-2.45
2017-11-28T13:57:30.978Z,-2.32
2017-11-28T13:58:40.732Z,-2.33
2017-11-28T13:59:50.744Z,-2.33
2017-11-28T14:01:00.761Z,-2.25
2017-11-28T14:02:10.776Z,-2.29
2017-11-28T14:03:20.777Z,-2.36
2017-11-28T14:04:30.789Z,-2.34
2017-11-28T14:05:40.841Z,-2.36
2017-11-28T14:06:50.844Z,-2.32
2017-11-28T14:08:00.583Z,-2.34
2017-11-28T14:09:10.605Z,-2.33
2017-11-28T14:10:20.388Z,-2.34
2017-11-28T14:11:30.398Z,-2.28
2017-11-28T14:12:40.410Z,-2.32
2017-11-28T14:13:50.156Z,-2.33
2017-11-28T14:14:59.901Z,-2.36
2017-11-28T14:16:09.917Z,-2.32
2017-11-28T14:17:19.400Z,-2.29
2017-11-28T14:18:29.414Z,-2.23
2017-11-28T14:19:39.424Z,-2.34
2017-11-28T14:20:49.430Z,-2.45
2017-11-28T14:21:59.159Z,-2.4
2017-11-28T14:23:09.171Z,-2.4
2017-11-28T14:24:19.205Z,-2.54
2017-11-28T14:25:29.236Z,-2.5
2017-11-28T14:26:39.252Z,-2.48
2017-11-28T14:27:48.735Z,-2.51
2017-11-28T14:28:58.737Z,-2.52
2017-11-28T14:30:08.217Z,-2.5
2017-11-28T14:31:17.960Z,-2.52
2017-11-28T14:32:27.984Z,-2.51
2017-11-28T14:33:38.003Z,-2.51
2017-11-28T14:34:48.013Z,-2.52
2017-11-28T14:35:57.769Z,-2.5
2017-11-28T14:37:07.799Z,-2.61
2017-11-28T14:38:17.550Z,-2.58
2017-11-28T14:39:27.548Z,-2.62
2017-11-28T14:40:37.311Z,-2.55
2017-11-28T14:41:47.050Z,-2.55
2017-11-28T14:42:57.066Z,-2.54
2017-11-28T14:44:06.544Z,-2.61
2017-11-28T14:45:16.286Z,-2.58
2017-11-28T14:46:26.301Z,-2.65
2017-11-28T14:47:36.324Z,-2.63
2017-11-28T14:48:46.352Z,-2.51
2017-11-28T14:49:56.395Z,-2.61
2017-11-28T14:51:06.126Z,-2.63
2017-11-28T14:52:16.184Z,-2.65
2017-11-28T14:53:26.186Z,-2.68
2017-11-28T14:54:36.197Z,-2.62
2017-11-28T14:55:45.953Z,-2.65
2017-11-28T14:56:55.146Z,-2.62
2017-11-28T14:58:04.881Z,-2.72
2017-11-28T14:59:14.706Z,-2.62
2017-11-28T15:00:24.722Z,-2.69
2017-11-28T15:01:34.483Z,-2.63
2017-11-28T15:02:44.540Z,-2.65
2017-11-28T15:03:54.543Z,-2.68
2017-11-28T15:05:04.295Z,-2.58
2017-11-28T15:06:14.317Z,-2.69